Wool, United Kingdom
Current Conditions -  °F | °C
As of 7:50 PM on Thursday 29 Jan 2015 (Local Time) from EGHH Reporting Station
Few Clouds Few Clouds  
Wind Chill: 26°   Ceiling: Unl
Heat Index: 36°   Visibility: 6mi
Dew Point: 30°   Wind: 16mph
Humidity: 81%   Direction: 310°NW
Pressure: 28.97"   Gusts: NA
Location:  50.68°N, 2.22°W
Report Text: EGHH 291950Z 31014KT 270V340 9999 FEW021 02/M01 Q0981
Loading
Personal Weather Stations






























Interactive Weather Map New forecast layout! Learn more

10-Day Weather Forecast

Advertisements
Track Severe Weather on mobile